createdAt,value
2022-09-20T00:02:06.426Z,101345.59
2022-09-20T00:04:35.892Z,101341.53
2022-09-20T00:07:03.969Z,101338.22
2022-09-20T00:09:32.160Z,101341.25
2022-09-20T00:12:00.264Z,101342.19
2022-09-20T00:14:28.522Z,101349.63
2022-09-20T00:16:56.543Z,101347.84
2022-09-20T00:19:25.344Z,101350.47
2022-09-20T00:21:54.717Z,101357.03
2022-09-20T00:24:22.735Z,101347.69
2022-09-20T00:26:51.732Z,101358.09
2022-09-20T00:29:19.693Z,101354.41
2022-09-20T00:31:47.818Z,101354.28
2022-09-20T00:34:33.572Z,101354.53
2022-09-20T00:37:02.959Z,101357.25
2022-09-20T00:39:31.270Z,101356.66
2022-09-20T00:41:59.364Z,101357.66
2022-09-20T00:44:44.567Z,101364.78
2022-09-20T00:47:22.894Z,101359.75
2022-09-20T00:49:53.329Z,101363.50
2022-09-20T00:52:22.905Z,101366.50
2022-09-20T00:54:50.935Z,101375.16
2022-09-20T00:57:18.931Z,101365.81
2022-09-20T00:59:48.078Z,101372.09
2022-09-20T01:02:18.220Z,101378.09
2022-09-20T01:04:46.386Z,101371.19
2022-09-20T01:07:16.725Z,101384.19
2022-09-20T01:09:46.035Z,101376.34
2022-09-20T01:12:17.470Z,101375.75
2022-09-20T01:14:47.336Z,101376.44
2022-09-20T01:17:15.659Z,101382.50
2022-09-20T01:19:50.239Z,101380.00
2022-09-20T01:22:23.429Z,101383.44
2022-09-20T01:24:57.517Z,101379.28
2022-09-20T01:27:38.414Z,101384.78
2022-09-20T01:30:08.467Z,101392.75
2022-09-20T01:32:59.422Z,101392.81
2022-09-20T01:35:29.047Z,101389.41
2022-09-20T01:38:21.299Z,101399.63
2022-09-20T01:40:57.908Z,101410.06
2022-09-20T01:43:31.129Z,101415.38
2022-09-20T01:46:00.228Z,101408.56
2022-09-20T01:48:35.278Z,101405.16
2022-09-20T01:51:23.806Z,101417.38
2022-09-20T01:54:14.357Z,101420.03
2022-09-20T01:57:25.058Z,101428.53
2022-09-20T02:00:07.363Z,101436.41
2022-09-20T02:03:07.401Z,101435.47
2022-09-20T02:05:44.760Z,101428.69
2022-09-20T02:08:31.673Z,101435.41
2022-09-20T02:11:08.358Z,101439.41
2022-09-20T02:13:47.947Z,101431.56
2022-09-20T02:16:32.563Z,101437.81
2022-09-20T02:19:17.010Z,101435.09
2022-09-20T02:21:50.559Z,101443.69
2022-09-20T02:24:24.491Z,101434.88
2022-09-20T02:27:03.947Z,101439.94
2022-09-20T02:29:36.903Z,101434.09
2022-09-20T02:32:09.914Z,101446.16
2022-09-20T02:34:50.650Z,101452.13
2022-09-20T02:37:45.314Z,101445.78
2022-09-20T02:40:21.835Z,101440.06
2022-09-20T02:42:58.004Z,101435.59
2022-09-20T02:45:31.585Z,101435.25
2022-09-20T02:48:04.862Z,101429.78
2022-09-20T02:50:39.486Z,101432.06
2022-09-20T02:53:17.151Z,101430.91
2022-09-20T02:55:49.014Z,101428.19
2022-09-20T02:58:28.182Z,101422.72
2022-09-20T03:01:02.191Z,101423.50
2022-09-20T03:03:40.243Z,101419.75
2022-09-20T03:06:12.510Z,101411.94
2022-09-20T03:08:46.821Z,101426.00
2022-09-20T03:11:20.832Z,101424.31
2022-09-20T03:13:58.465Z,101422.53
2022-09-20T03:16:35.670Z,101424.19
2022-09-20T03:19:14.435Z,101429.53
2022-09-20T03:21:53.839Z,101428.63
2022-09-20T03:24:34.463Z,101421.75
2022-09-20T03:27:08.615Z,101429.31
2022-09-20T03:29:47.313Z,101424.16
2022-09-20T03:32:27.700Z,101424.25
2022-09-20T03:35:06.342Z,101426.06
2022-09-20T03:37:45.349Z,101435.59
2022-09-20T03:40:49.563Z,101434.50
2022-09-20T03:43:25.832Z,101426.16
2022-09-20T03:46:02.338Z,101432.31
2022-09-20T03:48:57.853Z,101439.03
2022-09-20T03:51:34.161Z,101433.00
2022-09-20T03:54:20.166Z,101433.16
2022-09-20T03:57:00.940Z,101435.78
2022-09-20T03:59:54.168Z,101438.81
2022-09-20T04:02:34.032Z,101442.38
2022-09-20T04:05:04.864Z,101442.28
2022-09-20T04:07:40.344Z,101437.84
2022-09-20T04:10:37.460Z,101439.13
2022-09-20T04:13:17.118Z,101443.53
2022-09-20T04:15:51.180Z,101450.44
2022-09-20T04:18:24.666Z,101442.63
2022-09-20T04:20:57.970Z,101454.13
2022-09-20T04:23:34.628Z,101459.44
2022-09-20T04:26:03.550Z,101463.78
2022-09-20T04:28:35.942Z,101454.91
2022-09-20T04:31:07.499Z,101463.63
2022-09-20T04:33:38.219Z,101456.63
2022-09-20T04:36:29.012Z,101474.63
2022-09-20T04:39:06.161Z,101464.25
2022-09-20T04:41:55.827Z,101465.22
2022-09-20T04:44:36.332Z,101471.41
2022-09-20T04:47:37.718Z,101470.50
2022-09-20T04:50:24.341Z,101467.19
2022-09-20T04:53:34.243Z,101471.72
2022-09-20T04:56:04.460Z,101469.28
2022-09-20T04:58:48.038Z,101479.38
2022-09-20T05:01:51.975Z,101483.03
2022-09-20T05:05:20.059Z,101484.72
2022-09-20T05:08:41.053Z,101483.22
2022-09-20T05:11:27.664Z,101494.84
2022-09-20T05:14:17.098Z,101493.19
2022-09-20T05:17:01.919Z,101501.47
2022-09-20T05:19:33.442Z,101504.19
2022-09-20T05:22:10.462Z,101507.78
2022-09-20T05:24:57.562Z,101511.97
2022-09-20T05:27:40.648Z,101521.44
2022-09-20T05:30:16.565Z,101524.13
2022-09-20T05:32:48.446Z,101523.47
2022-09-20T05:35:22.180Z,101529.53
2022-09-20T05:37:53.833Z,101533.94
2022-09-20T05:40:29.054Z,101537.44
2022-09-20T05:43:07.411Z,101549.47
2022-09-20T05:45:48.931Z,101544.72
2022-09-20T05:48:24.557Z,101549.00
2022-09-20T05:50:59.530Z,101553.84
2022-09-20T05:54:14.364Z,101554.44
2022-09-20T05:56:47.360Z,101546.59
2022-09-20T05:59:31.359Z,101549.16
2022-09-20T06:02:08.253Z,101553.38
2022-09-20T06:04:42.789Z,101560.28
2022-09-20T06:07:21.672Z,101558.53
2022-09-20T06:10:07.627Z,101568.00
2022-09-20T06:12:41.760Z,101574.69
2022-09-20T06:15:19.109Z,101578.19
2022-09-20T06:17:54.323Z,101576.56
2022-09-20T06:20:26.973Z,101574.66
2022-09-20T06:22:56.899Z,101586.81
2022-09-20T06:25:27.763Z,101585.72
2022-09-20T06:27:58.822Z,101576.72
2022-09-20T06:30:31.387Z,101580.97
2022-09-20T06:33:00.767Z,101586.84
2022-09-20T06:35:34.730Z,101576.63
2022-09-20T06:38:31.760Z,101573.06
2022-09-20T06:41:17.169Z,101578.31
2022-09-20T06:43:45.515Z,101572.00
2022-09-20T06:46:15.734Z,101570.03
2022-09-20T06:48:43.644Z,101568.22
2022-09-20T06:51:12.466Z,101571.66
2022-09-20T06:53:42.137Z,101560.09
2022-09-20T06:56:11.078Z,101561.59
2022-09-20T06:58:38.940Z,101562.84
2022-09-20T07:01:06.943Z,101564.75
2022-09-20T07:03:36.152Z,101575.75
2022-09-20T07:06:04.401Z,101564.78
2022-09-20T07:08:32.277Z,101566.75
2022-09-20T07:11:04.886Z,101561.63
2022-09-20T07:13:32.770Z,101572.97
2022-09-20T07:16:04.696Z,101565.53
2022-09-20T07:18:35.300Z,101579.31
2022-09-20T07:21:06.223Z,101572.06
2022-09-20T07:23:34.091Z,101596.25
2022-09-20T07:26:01.950Z,101581.97
2022-09-20T07:28:30.890Z,101596.09
2022-09-20T07:30:59.283Z,101596.03
2022-09-20T07:33:27.126Z,101597.69
2022-09-20T07:35:55.939Z,101599.44
2022-09-20T07:38:25.316Z,101598.13
2022-09-20T07:40:57.602Z,101605.13
2022-09-20T07:43:25.760Z,101609.53
2022-09-20T07:45:56.001Z,101617.69
2022-09-20T07:48:25.859Z,101612.19
2022-09-20T07:50:55.141Z,101620.66
2022-09-20T07:53:23.593Z,101625.63
2022-09-20T07:56:00.112Z,101622.09
2022-09-20T07:58:28.229Z,101627.75
2022-09-20T08:00:56.654Z,101642.44
2022-09-20T08:03:24.838Z,101635.38
2022-09-20T08:05:53.922Z,101632.44
2022-09-20T08:08:21.925Z,101638.00
2022-09-20T08:10:49.989Z,101633.59
2022-09-20T08:16:10.341Z,101651.63
2022-09-20T08:18:39.014Z,101643.34
2022-09-20T08:21:07.928Z,101646.13
2022-09-20T08:23:36.304Z,101656.53
2022-09-20T08:26:04.516Z,101654.78
2022-09-20T08:28:34.191Z,101653.16
2022-09-20T08:31:03.248Z,101657.97
2022-09-20T08:33:31.369Z,101650.97
2022-09-20T08:35:59.455Z,101659.63
2022-09-20T08:41:17.168Z,101656.34
2022-09-20T08:43:50.274Z,101659.81
2022-09-20T08:46:23.360Z,101664.44
2022-09-20T08:48:52.216Z,101659.94
2022-09-20T08:51:23.133Z,101657.31
2022-09-20T08:53:52.569Z,101658.16
2022-09-20T08:56:21.376Z,101666.00
2022-09-20T08:58:50.597Z,101671.63
2022-09-20T09:01:22.910Z,101672.06
2022-09-20T09:03:52.436Z,101681.91
2022-09-20T09:06:21.533Z,101682.03
2022-09-20T09:08:53.350Z,101673.16
2022-09-20T09:11:23.451Z,101687.19
2022-09-20T09:13:55.407Z,101682.34
2022-09-20T09:16:31.848Z,101689.00
2022-09-20T09:19:33.266Z,101701.91
2022-09-20T09:22:03.070Z,101686.69
2022-09-20T09:24:32.066Z,101689.75
2022-09-20T09:27:09.712Z,101682.50
2022-09-20T09:29:51.715Z,101693.66
2022-09-20T09:32:25.186Z,101686.47
2022-09-20T09:34:53.081Z,101685.53
2022-09-20T09:37:28.892Z,101690.44
2022-09-20T09:40:16.423Z,101693.72
2022-09-20T09:42:52.262Z,101698.81
2022-09-20T09:45:34.732Z,101697.19
2022-09-20T09:48:05.026Z,101709.59
2022-09-20T09:50:35.041Z,101711.06
2022-09-20T09:53:07.266Z,101712.06
2022-09-20T09:55:54.406Z,101711.75
2022-09-20T09:58:32.209Z,101706.38
2022-09-20T10:01:02.385Z,101709.16
2022-09-20T10:03:44.992Z,101708.91
2022-09-20T10:06:19.006Z,101719.63
2022-09-20T10:09:05.527Z,101714.44
2022-09-20T10:11:44.353Z,101717.13
2022-09-20T10:14:23.216Z,101715.50
2022-09-20T10:17:12.197Z,101707.97
2022-09-20T10:20:04.585Z,101711.44
2022-09-20T10:22:38.424Z,101719.75
2022-09-20T10:25:15.085Z,101720.47
2022-09-20T10:27:52.309Z,101725.66
2022-09-20T10:30:22.230Z,101726.66
2022-09-20T10:33:02.156Z,101751.94
2022-09-20T10:35:35.917Z,101747.47
2022-09-20T10:38:14.501Z,101760.63
2022-09-20T10:41:07.705Z,101753.59
2022-09-20T10:43:46.847Z,101745.19
2022-09-20T10:46:31.767Z,101738.59
2022-09-20T10:49:05.780Z,101721.78
2022-09-20T10:51:44.555Z,101728.81
2022-09-20T10:54:24.222Z,101732.84
2022-09-20T10:56:53.526Z,101738.94
2022-09-20T10:59:34.501Z,101735.91
2022-09-20T11:02:23.309Z,101738.41
2022-09-20T11:05:06.209Z,101747.63
2022-09-20T11:07:42.842Z,101746.09
2022-09-20T11:10:16.478Z,101759.44
2022-09-20T11:12:47.322Z,101771.53
2022-09-20T11:15:18.830Z,101764.13
2022-09-20T11:17:50.714Z,101759.38
2022-09-20T11:20:23.488Z,101779.81
2022-09-20T11:22:51.882Z,101767.31
2022-09-20T11:25:26.067Z,101748.59
2022-09-20T11:27:58.828Z,101770.59
2022-09-20T11:30:28.289Z,101773.84
2022-09-20T11:33:00.852Z,101769.00
2022-09-20T11:35:34.566Z,101780.59
2022-09-20T11:38:11.299Z,101785.16
2022-09-20T11:40:43.917Z,101783.94
2022-09-20T11:43:12.342Z,101780.81
2022-09-20T11:45:43.085Z,101782.06
2022-09-20T11:48:15.498Z,101798.16
2022-09-20T11:51:09.822Z,101778.88
2022-09-20T11:53:47.469Z,101772.03
2022-09-20T11:56:19.033Z,101776.28
2022-09-20T11:58:48.276Z,101790.09
2022-09-20T12:01:17.598Z,101790.28
2022-09-20T12:03:46.306Z,101801.38
2022-09-20T12:06:27.620Z,101800.81
2022-09-20T12:08:57.174Z,101815.50
2022-09-20T12:11:31.550Z,101797.66
2022-09-20T12:14:05.044Z,101808.63
2022-09-20T12:16:41.345Z,101804.16
2022-09-20T12:19:12.254Z,101801.75
2022-09-20T12:22:18.100Z,101809.28
2022-09-20T12:24:45.950Z,101816.13
2022-09-20T12:27:50.234Z,101810.63
2022-09-20T12:30:20.428Z,101806.47
2022-09-20T12:33:01.112Z,101803.06
2022-09-20T12:36:02.359Z,101800.84
2022-09-20T12:38:42.062Z,101796.75
2022-09-20T12:41:13.007Z,101797.84
2022-09-20T12:43:56.630Z,101810.91
2022-09-20T12:46:29.152Z,101798.13
2022-09-20T12:49:40.079Z,101801.41
2022-09-20T12:52:39.595Z,101814.06
2022-09-20T12:55:11.225Z,101804.94
2022-09-20T12:57:39.410Z,101808.50
2022-09-20T13:00:09.638Z,101820.28
2022-09-20T13:02:57.120Z,101821.50
2022-09-20T13:05:33.501Z,101816.91
2022-09-20T13:08:03.821Z,101816.66
2022-09-20T13:10:35.955Z,101809.53
2022-09-20T13:13:12.268Z,101814.28
2022-09-20T13:15:40.732Z,101818.88
2022-09-20T13:18:12.806Z,101823.91
2022-09-20T13:20:42.887Z,101811.22
2022-09-20T13:23:19.420Z,101819.56
2022-09-20T13:25:49.710Z,101817.78
2022-09-20T13:28:27.260Z,101816.47
2022-09-20T13:31:23.938Z,101820.13
2022-09-20T13:33:52.065Z,101811.09
2022-09-20T13:36:26.147Z,101813.34
2022-09-20T13:38:55.640Z,101811.81
2022-09-20T13:41:27.815Z,101812.72
2022-09-20T13:43:56.521Z,101816.44
2022-09-20T13:46:26.424Z,101810.69
2022-09-20T13:49:00.485Z,101822.38
2022-09-20T13:51:29.674Z,101832.28
2022-09-20T13:54:22.434Z,101838.84
2022-09-20T13:56:52.178Z,101858.97
2022-09-20T13:59:20.542Z,101865.88
2022-09-20T14:01:52.719Z,101871.03
2022-09-20T14:04:23.428Z,101861.97
2022-09-20T14:06:52.573Z,101867.03
2022-09-20T14:09:26.067Z,101862.44
2022-09-20T14:11:56.007Z,101865.13
2022-09-20T14:14:25.293Z,101867.88
2022-09-20T14:16:54.776Z,101875.72
2022-09-20T14:19:26.374Z,101885.97
2022-09-20T14:21:54.637Z,101875.38
2022-09-20T14:24:31.858Z,101895.97
2022-09-20T14:27:16.421Z,101901.03
2022-09-20T14:29:45.773Z,101896.09
2022-09-20T14:32:27.005Z,101892.94
2022-09-20T14:35:02.026Z,101894.09
2022-09-20T14:37:31.891Z,101890.84
2022-09-20T14:40:01.018Z,101882.66
2022-09-20T14:42:32.745Z,101891.16
2022-09-20T14:45:00.829Z,101884.97
2022-09-20T14:47:29.710Z,101877.47
2022-09-20T14:49:58.999Z,101876.31
2022-09-20T14:52:43.661Z,101882.69
2022-09-20T14:55:28.214Z,101889.97
2022-09-20T14:58:02.181Z,101883.00
2022-09-20T15:00:30.827Z,101884.38
2022-09-20T15:03:14.850Z,101892.94
2022-09-20T15:05:43.884Z,101890.59
2022-09-20T15:08:13.185Z,101894.53
2022-09-20T15:10:41.092Z,101889.22
2022-09-20T15:13:12.131Z,101893.94
2022-09-20T15:15:40.062Z,101894.75
2022-09-20T15:18:19.471Z,101904.97
2022-09-20T15:20:47.430Z,101896.31
2022-09-20T15:23:15.371Z,101893.50
2022-09-20T15:25:43.266Z,101892.47
2022-09-20T15:28:16.648Z,101891.31
2022-09-20T15:30:44.994Z,101896.91
2022-09-20T15:33:13.641Z,101901.34
2022-09-20T15:35:42.420Z,101901.72
2022-09-20T15:38:11.790Z,101911.41
2022-09-20T15:40:40.748Z,101916.09
2022-09-20T15:43:09.679Z,101919.84
2022-09-20T15:45:50.079Z,101900.44
2022-09-20T15:48:20.109Z,101898.34
2022-09-20T15:51:01.936Z,101896.44
2022-09-20T15:53:34.191Z,101900.34
2022-09-20T15:56:04.030Z,101894.28
2022-09-20T15:58:36.251Z,101897.72
2022-09-20T16:01:07.984Z,101892.88
2022-09-20T16:03:37.046Z,101903.69
2022-09-20T16:06:07.025Z,101896.97
2022-09-20T16:08:35.803Z,101898.34
2022-09-20T16:11:04.852Z,101899.09
2022-09-20T16:13:32.748Z,101905.94
2022-09-20T16:16:02.776Z,101900.72
2022-09-20T16:18:49.973Z,101897.69
2022-09-20T16:21:19.094Z,101899.44
2022-09-20T16:23:52.961Z,101898.69
2022-09-20T16:26:22.397Z,101901.31
2022-09-20T16:28:50.256Z,101909.03
2022-09-20T16:31:34.623Z,101909.38
2022-09-20T16:34:05.298Z,101916.88
2022-09-20T16:36:33.606Z,101926.31
2022-09-20T16:39:03.139Z,101927.44
2022-09-20T16:41:32.340Z,101934.34
2022-09-20T16:44:00.147Z,101937.66
2022-09-20T16:46:28.225Z,101935.13
2022-09-20T16:48:56.856Z,101924.91
2022-09-20T16:51:27.113Z,101927.13
2022-09-20T16:53:55.702Z,101925.47
2022-09-20T16:56:25.286Z,101917.69
2022-09-20T16:58:53.710Z,101916.72
2022-09-20T17:01:21.666Z,101915.47
2022-09-20T17:03:49.988Z,101917.78
2022-09-20T17:06:18.962Z,101926.28
2022-09-20T17:08:48.672Z,101922.22
2022-09-20T17:11:18.787Z,101929.31
2022-09-20T17:13:47.215Z,101932.19
2022-09-20T17:16:16.851Z,101932.25
2022-09-20T17:18:44.959Z,101938.53
2022-09-20T17:21:14.729Z,101938.00
2022-09-20T17:23:45.537Z,101943.25
2022-09-20T17:26:19.983Z,101937.19
2022-09-20T17:28:49.281Z,101938.22
2022-09-20T17:31:20.244Z,101950.59
2022-09-20T17:33:48.238Z,101946.53
2022-09-20T17:36:18.468Z,101958.59
2022-09-20T17:38:47.277Z,101953.44
2022-09-20T17:41:16.848Z,101950.91
2022-09-20T17:43:47.046Z,101954.38
2022-09-20T17:46:17.570Z,101958.06
2022-09-20T17:48:48.950Z,101966.03
2022-09-20T17:51:18.085Z,101961.59
2022-09-20T17:53:46.230Z,101963.59
2022-09-20T17:56:15.647Z,101962.56
2022-09-20T17:58:44.144Z,101970.53
2022-09-20T18:01:15.227Z,101967.34
2022-09-20T18:03:44.995Z,101972.84
2022-09-20T18:06:15.028Z,101976.31
2022-09-20T18:08:43.482Z,101974.59
2022-09-20T18:11:11.774Z,101987.97
2022-09-20T18:13:39.573Z,101983.00
2022-09-20T18:16:10.940Z,101997.91
2022-09-20T18:18:41.797Z,102006.56
2022-09-20T18:21:16.185Z,102010.13
2022-09-20T18:23:45.299Z,102016.31
2022-09-20T18:26:23.057Z,102018.91
2022-09-20T18:28:58.580Z,102024.88
2022-09-20T18:31:29.914Z,102030.16
2022-09-20T18:34:00.726Z,102034.56
2022-09-20T18:36:29.438Z,102036.38
2022-09-20T18:38:58.446Z,102038.19
2022-09-20T18:41:28.449Z,102039.91
2022-09-20T18:43:56.992Z,102052.06
2022-09-20T18:46:27.029Z,102053.81
2022-09-20T18:48:56.946Z,102054.75
2022-09-20T18:51:28.664Z,102059.97
2022-09-20T18:53:57.198Z,102062.69
2022-09-20T18:56:27.123Z,102070.56
2022-09-20T18:58:56.274Z,102081.03
2022-09-20T19:01:53.680Z,102078.53
2022-09-20T19:04:55.093Z,102086.31
2022-09-20T19:07:31.269Z,102088.03
2022-09-20T19:10:02.931Z,102094.13
2022-09-20T19:12:35.238Z,102097.63
2022-09-20T19:15:13.001Z,102098.56
2022-09-20T19:17:50.584Z,102097.78
2022-09-20T19:20:22.881Z,102104.75
2022-09-20T19:23:01.478Z,102110.88
2022-09-20T19:25:34.103Z,102114.38
2022-09-20T19:28:02.551Z,102115.28
2022-09-20T19:30:31.036Z,102119.66
2022-09-20T19:32:59.502Z,102120.53
2022-09-20T19:35:38.154Z,102127.47
2022-09-20T19:38:15.378Z,102135.25
2022-09-20T19:40:46.688Z,102146.53
2022-09-20T19:43:36.778Z,102135.28
2022-09-20T19:46:14.117Z,102150.03
2022-09-20T19:48:48.315Z,102152.66
2022-09-20T19:51:17.067Z,102154.44
2022-09-20T19:53:47.010Z,102164.00
2022-09-20T19:56:24.697Z,102165.75
2022-09-20T19:58:54.968Z,102175.28
2022-09-20T20:01:24.471Z,102183.94
2022-09-20T20:03:53.506Z,102189.16
2022-09-20T20:06:26.458Z,102197.78
2022-09-20T20:09:00.024Z,102193.47
2022-09-20T20:11:36.195Z,102199.56
2022-09-20T20:14:12.454Z,102194.34
2022-09-20T20:16:50.071Z,102190.03
2022-09-20T20:19:46.389Z,102194.38
2022-09-20T20:22:28.346Z,102192.66
2022-09-20T20:24:58.508Z,102206.53
2022-09-20T20:27:28.318Z,102204.81
2022-09-20T20:29:56.403Z,102199.63
2022-09-20T20:32:25.812Z,102198.75
2022-09-20T20:34:53.643Z,102197.88
2022-09-20T20:37:23.929Z,102198.78
2022-09-20T20:39:52.143Z,102202.25
2022-09-20T20:42:21.584Z,102197.88
2022-09-20T20:44:49.575Z,102200.50
2022-09-20T20:47:17.401Z,102200.50
2022-09-20T20:49:47.515Z,102208.28
2022-09-20T20:52:18.861Z,102208.28
2022-09-20T20:54:46.718Z,102214.34
2022-09-20T20:57:16.875Z,102208.28
2022-09-20T20:59:46.103Z,102205.69
2022-09-20T21:02:13.891Z,102215.19
2022-09-20T21:04:42.344Z,102206.50
2022-09-20T21:07:10.834Z,102212.53
2022-09-20T21:09:39.680Z,102204.72
2022-09-20T21:12:07.871Z,102216.88
2022-09-20T21:14:35.686Z,102217.75
2022-09-20T21:17:06.195Z,102215.94
2022-09-20T21:19:34.100Z,102222.00
2022-09-20T21:22:01.974Z,102213.31
2022-09-20T21:24:29.935Z,102224.66
2022-09-20T21:26:57.873Z,102221.22
2022-09-20T21:29:25.673Z,102228.16
2022-09-20T21:31:53.474Z,102234.16
2022-09-20T21:34:22.734Z,102229.84
2022-09-20T21:36:50.566Z,102233.31
2022-09-20T21:39:18.387Z,102250.66
2022-09-20T21:41:47.259Z,102239.38
2022-09-20T21:44:15.136Z,102243.78
2022-09-20T21:46:43.414Z,102249.84
2022-09-20T21:49:12.483Z,102252.44
2022-09-20T21:51:42.685Z,102253.34
2022-09-20T21:54:11.013Z,102256.81
2022-09-20T21:56:40.218Z,102261.16
2022-09-20T21:59:08.137Z,102269.84
2022-09-20T22:01:37.310Z,102275.88
2022-09-20T22:04:06.508Z,102268.06
2022-09-20T22:06:35.965Z,102268.91
2022-09-20T22:09:07.106Z,102267.16
2022-09-20T22:11:38.787Z,102269.81
2022-09-20T22:14:07.863Z,102256.84
2022-09-20T22:16:37.844Z,102258.59
2022-09-20T22:19:06.943Z,102261.25
2022-09-20T22:21:36.816Z,102263.00
2022-09-20T22:24:07.821Z,102271.66
2022-09-20T22:26:37.253Z,102272.47
2022-09-20T22:29:06.372Z,102267.31
2022-09-20T22:31:35.691Z,102273.38
2022-09-20T22:34:05.791Z,102273.38
2022-09-20T22:36:35.303Z,102275.13
2022-09-20T22:39:03.649Z,102276.03
2022-09-20T22:41:32.948Z,102276.03
2022-09-20T22:44:01.453Z,102274.28
2022-09-20T22:46:30.864Z,102283.84
2022-09-20T22:48:58.818Z,102279.50
2022-09-20T22:51:27.946Z,102278.63
2022-09-20T22:53:56.117Z,102281.25
2022-09-20T22:56:25.648Z,102280.38
2022-09-20T22:58:56.734Z,102288.16
2022-09-20T23:01:26.102Z,102291.63
2022-09-20T23:03:56.050Z,102290.75
2022-09-20T23:06:25.863Z,102289.03
2022-09-20T23:08:55.642Z,102293.34
2022-09-20T23:11:23.918Z,102296.78
2022-09-20T23:13:56.390Z,102295.03
2022-09-20T23:16:26.186Z,102295.91
2022-09-20T23:18:55.140Z,102290.69
2022-09-20T23:21:23.478Z,102301.94
2022-09-20T23:23:54.121Z,102303.66
2022-09-20T23:26:22.294Z,102306.25
2022-09-20T23:28:55.342Z,102309.72
2022-09-20T23:31:23.956Z,102308.88
2022-09-20T23:33:53.880Z,102306.28
2022-09-20T23:36:22.857Z,102312.31
2022-09-20T23:38:51.317Z,102310.56
2022-09-20T23:41:20.500Z,102307.06
2022-09-20T23:43:48.784Z,102310.44
2022-09-20T23:46:19.428Z,102310.44
2022-09-20T23:48:47.500Z,102314.81
2022-09-20T23:51:17.518Z,102312.19
2022-09-20T23:53:45.579Z,102308.72
2022-09-20T23:56:14.519Z,102313.94
2022-09-20T23:58:43.888Z,102313.91
